KSYN/SYN METAR and TAF weather

Enter ICAO airport designator
Station Type Date Time Source
KSYN METAR 2020/01/29 03:36 UTC NOAA

KSYN 290336Z AUTO 02004KT 10SM OVC018 M09/M10 A3014 RMK AO2 T10901103


Station Type Date Time Source
KSYN Decoded METAR 2020/01/29 03:36 UTC NOAA

Stanton, Stanton Airfield, MN, United States (KSYN) 44-28-31N 093-00-58W
Jan 28, 2020 - 10:36 PM EST / 2020.01.29 0336 UTC
Wind: from the NNE (020 degrees) at 5 MPH (4 KT):0
Visibility: 10 mile(s):0
Sky conditions: overcast
Temperature: 15.8 F (-9.0 C)
Windchill: 8 F (-13 C):1
Dew Point: 13.5 F (-10.3 C)
Relative Humidity: 90%
Pressure (altimeter): 30.14 in. Hg (1020 hPa)
ob: KSYN 290336Z AUTO 02004KT 10SM OVC018 M09/M10 A3014 RMK AO2 T10901103
cycle: 3

Station Type Date Time Source
KSYN TAF UTC NOAA

Error!

Example: see airport list